Time;durP1;ratioP1;P1;durP2;ratioP2;P2;SDS_P1;SDS_P2;PMS_P1;PMS_P2;Temp;Humidity;BMP_temperature;BMP_pressure;BME280_temperature;BME280_humidity;BME280_pressure;Samples;Min_cycle;Max_cycle;Signal;HPM_P1;HPM_P2
2022/06/10 00:01:29;;;;;;;;;3.50;3.50;;;;;20.57;51.15;101401.66;5017939;28;45700;-79
2022/06/10 00:03:54;;;;;;;;;5.50;5.25;;;;;20.67;51.15;101412.25;5035462;28;45773;-79
2022/06/10 00:06:19;;;;;;;;;7.00;4.75;;;;;20.70;51.27;101417.25;5034418;28;45627;-79
2022/06/10 00:08:47;;;;;;;;;6.00;5.75;;;;;20.61;51.22;101411.03;5032956;28;46247;-78
2022/06/10 00:11:13;;;;;;;;;7.25;6.00;;;;;20.63;51.36;101417.00;5033182;28;45496;-76
2022/06/10 00:13:42;;;;;;;;;3.00;3.00;;;;;20.59;51.35;101410.34;5032938;28;45817;-79
2022/06/10 00:16:08;;;;;;;;;7.00;6.00;;;;;20.62;51.75;101410.00;5014315;28;47129;-77
2022/06/10 00:18:35;;;;;;;;;4.50;4.50;;;;;20.60;51.38;101420.00;5047415;28;46071;-79
2022/06/10 00:21:01;;;;;;;;;5.00;5.00;;;;;20.51;51.52;101403.09;5052941;28;45587;-79
2022/06/10 00:23:27;;;;;;;;;5.25;5.00;;;;;20.49;51.69;101404.25;5052777;28;45522;-79
2022/06/10 00:25:53;;;;;;;;;6.00;5.00;;;;;20.56;51.74;101421.31;5052380;28;46300;-78
2022/06/10 00:28:19;;;;;;;;;4.50;4.50;;;;;20.51;51.72;101418.28;5052370;28;45978;-79
2022/06/10 00:30:45;;;;;;;;;6.00;5.25;;;;;20.47;51.83;101407.06;5052716;28;45666;-79
2022/06/10 00:33:12;;;;;;;;;5.00;4.50;;;;;20.46;51.72;101410.72;5052861;28;45883;-78
2022/06/10 00:35:38;;;;;;;;;3.25;3.00;;;;;20.46;51.71;101412.53;5053013;28;46873;-78
2022/06/10 00:38:04;;;;;;;;;6.00;4.75;;;;;20.44;51.95;101406.56;5053991;28;46228;-79
2022/06/10 00:40:33;;;;;;;;;5.00;4.00;;;;;20.48;51.89;101408.75;5054010;28;45714;-78
2022/06/10 00:42:59;;;;;;;;;6.75;4.50;;;;;20.48;52.09;101413.22;5052445;28;45707;-78
2022/06/10 00:48:58;;;;;;;;;6.50;5.25;;;;;20.47;52.14;101411.56;5051728;28;45941;-79
2022/06/10 00:51:35;;;;;;;;;3.00;3.00;;;;;20.45;52.09;101410.88;5051792;28;45938;-78
2022/06/10 00:54:15;;;;;;;;;4.75;4.25;;;;;20.41;52.17;101405.00;5052663;28;45711;-80
2022/06/10 00:56:45;;;;;;;;;4.75;4.75;;;;;20.38;51.97;101400.00;5036758;28;48117;-79
2022/06/10 00:59:24;;;;;;;;;5.00;4.00;;;;;20.39;52.15;101398.19;5055272;28;48246;-79
2022/06/10 01:01:54;;;;;;;;;7.00;5.50;;;;;20.42;52.54;101403.19;5055593;28;45732;-79
2022/06/10 01:04:23;;;;;;;;;6.00;5.50;;;;;20.41;52.43;101394.38;5055499;28;45812;-77
2022/06/10 01:06:48;;;;;;;;;4.00;4.00;;;;;20.35;52.34;101392.31;5036994;28;45778;-80
2022/06/10 01:09:37;;;;;;;;;4.25;3.25;;;;;20.37;52.39;101394.84;5017167;28;47310;-79
2022/06/10 01:12:32;;;;;;;;;6.50;4.75;;;;;20.38;52.46;101396.50;4987495;28;45680;-79
2022/06/10 01:15:10;;;;;;;;;4.75;4.50;;;;;20.33;52.43;101393.47;4984482;28;45838;-79
2022/06/10 01:17:47;;;;;;;;;4.75;3.50;;;;;20.34;52.57;101401.31;4992614;28;45968;-78
2022/06/10 01:20:39;;;;;;;;;3.75;3.75;;;;;20.32;52.38;101399.78;4993006;28;46557;-79
2022/06/10 01:23:05;;;;;;;;;6.75;6.00;;;;;20.30;52.60;101399.88;4992827;28;45721;-78
2022/06/10 01:25:52;;;;;;;;;4.00;4.00;;;;;20.29;52.53;101400.06;4992908;28;45790;-77
2022/06/10 01:31:58;;;;;;;;;5.00;5.00;;;;;20.11;52.73;101379.59;4993045;28;45984;-78
2022/06/10 01:34:28;;;;;;;;;4.00;4.00;;;;;20.20;52.83;101393.81;4992355;28;45597;-79
2022/06/10 01:37:08;;;;;;;;;4.00;4.00;;;;;20.19;52.87;101394.78;4992616;28;45679;-80
2022/06/10 01:43:10;;;;;;;;;4.75;3.75;;;;;19.96;52.88;101369.66;4914313;28;45952;-79
2022/06/10 01:48:59;;;;;;;;;5.00;5.00;;;;;20.09;52.65;101392.22;4950349;28;45909;-77
2022/06/10 01:52:02;;;;;;;;;5.00;4.00;;;;;20.08;52.89;101400.38;4972977;28;47487;-80
2022/06/10 01:54:54;;;;;;;;;5.00;5.00;;;;;20.04;52.87;101388.34;4972575;28;46462;-78
2022/06/10 01:57:35;;;;;;;;;4.00;3.00;;;;;20.02;52.94;101396.50;4988865;28;45800;-78
2022/06/10 02:00:17;;;;;;;;;4.00;4.00;;;;;20.00;53.16;101394.94;4973038;28;45717;-78
2022/06/10 02:02:56;;;;;;;;;5.00;5.00;;;;;20.01;52.93;101396.63;4972266;28;46797;-79
2022/06/10 02:05:27;;;;;;;;;3.50;3.50;;;;;19.96;52.67;101388.25;4972375;28;46124;-78
2022/06/10 02:08:27;;;;;;;;;3.25;3.00;;;;;19.98;53.02;101395.09;4972365;28;45777;-79
2022/06/10 02:11:14;;;;;;;;;5.00;4.00;;;;;19.79;53.14;101373.94;4973559;28;45884;-78
2022/06/10 02:13:47;;;;;;;;;6.00;4.00;;;;;19.76;53.46;101368.13;4988744;28;47895;-79
2022/06/10 02:16:38;;;;;;;;;5.75;5.25;;;;;19.84;53.38;101390.28;4989527;28;46732;-79
2022/06/10 02:19:11;;;;;;;;;5.00;4.00;;;;;19.94;53.23;101400.88;4975419;28;45571;-77
2022/06/10 02:22:06;;;;;;;;;3.50;3.25;;;;;19.92;53.24;101395.69;5053174;28;45651;-78
2022/06/10 02:24:55;;;;;;;;;5.25;3.50;;;;;19.90;53.10;101402.16;5054068;28;45723;-79
2022/06/10 02:27:27;;;;;;;;;4.00;4.00;;;;;19.77;53.04;101378.56;5054052;28;46302;-78
2022/06/10 02:33:14;;;;;;;;;5.00;4.75;;;;;19.80;53.38;101386.28;5054155;28;45649;-79
2022/06/10 02:35:50;;;;;;;;;5.00;4.75;;;;;19.76;53.24;101386.72;5054057;28;46487;-77
2022/06/10 02:38:40;;;;;;;;;3.50;3.25;;;;;19.75;53.15;101398.34;5053725;28;45899;-79
2022/06/10 02:41:31;;;;;;;;;2.75;2.75;;;;;19.77;53.60;101409.66;5035321;28;45619;-79
2022/06/10 02:50:43;;;;;;;;;6.50;4.75;;;;;19.67;53.71;101412.38;5053499;28;45832;-79
2022/06/10 02:53:09;;;;;;;;;5.00;4.00;;;;;19.61;53.33;101407.63;5035243;28;45773;-80
2022/06/10 02:55:34;;;;;;;;;4.00;4.00;;;;;19.60;53.18;101404.13;5053501;28;45689;-79
2022/06/10 03:01:13;;;;;;;;;4.75;4.00;;;;;19.61;53.58;101412.94;5053247;28;45695;-79
2022/06/10 03:04:01;;;;;;;;;5.00;5.00;;;;;19.57;53.68;101414.25;5053312;28;45847;-78
2022/06/10 03:06:37;;;;;;;;;5.00;3.00;;;;;19.54;53.49;101412.69;5053340;28;45889;-76
2022/06/10 03:09:09;;;;;;;;;4.50;3.25;;;;;19.53;53.60;101416.38;5034809;28;48385;-78
2022/06/10 03:11:53;;;;;;;;;4.50;4.00;;;;;19.53;53.79;101415.53;5053806;28;46233;-78
2022/06/10 03:17:59;;;;;;;;;4.00;3.00;;;;;19.49;54.17;101420.28;5052284;28;45653;-79
2022/06/10 03:21:02;;;;;;;;;4.00;4.00;;;;;19.45;53.70;101418.06;5053329;28;46634;-77
2022/06/10 03:23:58;;;;;;;;;2.75;2.75;;;;;19.39;53.93;101422.09;5034743;28;48181;-78
2022/06/10 03:26:40;;;;;;;;;4.00;3.50;;;;;19.34;53.76;101413.75;5053059;28;45737;-79
2022/06/10 03:29:17;;;;;;;;;4.00;4.00;;;;;19.39;53.90;101423.94;5034934;28;45530;-78
2022/06/10 03:38:22;;;;;;;;;4.00;3.00;;;;;19.22;54.17;101422.88;5025966;28;45787;-78
2022/06/10 03:40:56;;;;;;;;;3.75;3.75;;;;;19.21;54.14;101423.88;5030694;28;45703;-78
2022/06/10 03:43:23;;;;;;;;;3.75;3.00;;;;;19.14;54.67;101420.09;5030521;28;45863;-79
2022/06/10 03:46:17;;;;;;;;;4.75;4.00;;;;;19.14;54.77;101425.41;5030176;28;48512;-78
2022/06/10 03:48:45;;;;;;;;;5.00;3.00;;;;;19.11;54.36;101431.03;5046498;28;45634;-78
2022/06/10 03:51:16;;;;;;;;;3.00;3.00;;;;;19.10;54.52;101429.34;5030856;28;45769;-79
2022/06/10 03:53:42;;;;;;;;;4.00;4.00;;;;;19.04;55.15;101430.78;5013879;28;47085;-79
2022/06/10 03:56:09;;;;;;;;;3.00;3.00;;;;;19.01;54.87;101423.06;5029888;28;47500;-78
2022/06/10 03:58:34;;;;;;;;;3.00;3.00;;;;;18.97;55.09;101419.03;5013365;28;45820;-78
2022/06/10 04:01:00;;;;;;;;;4.50;3.00;;;;;18.96;55.33;101425.31;5030584;28;45752;-78
2022/06/10 04:06:58;;;;;;;;;;;;;;;;;;;;;
2022/06/10 04:09:25;;;;;;;;;3.00;3.00;;;;;18.86;55.59;101424.50;4970720;28;73534;-80
2022/06/10 04:11:50;;;;;;;;;5.00;3.25;;;;;18.89;55.57;101434.88;4971226;28;45954;-77
2022/06/10 04:14:16;;;;;;;;;5.00;4.00;;;;;18.91;55.32;101435.53;4968420;28;46983;-78
2022/06/10 04:16:42;;;;;;;;;3.00;3.00;;;;;18.95;55.48;101447.53;4969845;28;46239;-78
2022/06/10 04:19:10;;;;;;;;;4.50;3.50;;;;;18.94;55.42;101445.88;4970378;28;45677;-78
2022/06/10 04:21:46;;;;;;;;;4.00;3.00;;;;;18.88;55.86;101435.00;4954215;28;45940;-80
2022/06/10 04:24:20;;;;;;;;;2.00;2.00;;;;;18.85;55.94;101426.31;4971023;28;45830;-78
2022/06/10 04:26:46;;;;;;;;;3.25;3.00;;;;;18.80;55.67;101417.09;4970590;28;45910;-78
2022/06/10 04:29:36;;;;;;;;;4.50;4.00;;;;;18.89;55.59;101437.53;4970595;28;45585;-78
2022/06/10 04:32:01;;;;;;;;;3.75;3.25;;;;;18.92;55.50;101437.22;4973989;28;46029;-78
2022/06/10 04:34:26;;;;;;;;;3.00;2.50;;;;;18.92;56.32;101434.56;4973349;28;47522;-79
2022/06/10 04:36:51;;;;;;;;;4.00;2.50;;;;;18.95;55.54;101446.72;4973746;28;46643;-79
2022/06/10 04:39:24;;;;;;;;;5.00;5.00;;;;;18.98;56.21;101455.25;4974191;28;45797;-79
2022/06/10 04:41:49;;;;;;;;;4.00;3.00;;;;;18.96;56.09;101456.34;4974483;28;45797;-80
2022/06/10 04:44:15;;;;;;;;;5.25;3.75;;;;;18.92;56.33;101447.84;5029694;28;45731;-78
2022/06/10 04:46:43;;;;;;;;;4.25;4.00;;;;;18.92;55.84;101461.13;5055775;28;45687;-78
2022/06/10 04:49:09;;;;;;;;;4.25;3.50;;;;;18.88;56.46;101446.47;5055366;28;45910;-79
2022/06/10 04:51:36;;;;;;;;;3.00;3.00;;;;;18.96;56.16;101457.19;5055842;28;45854;-78
2022/06/10 04:54:03;;;;;;;;;9.75;9.00;;;;;18.96;56.36;101451.88;5055621;28;45698;-76
2022/06/10 04:56:29;;;;;;;;;9.00;7.00;;;;;18.98;56.32;101457.06;5055682;28;46286;-79
2022/06/10 04:58:54;;;;;;;;;19.75;17.25;;;;;18.96;56.54;101456.34;5055420;28;45753;-78
2022/06/10 05:01:20;;;;;;;;;4.00;3.75;;;;;18.96;56.70;101457.19;5055790;28;45497;-78
2022/06/10 05:03:45;;;;;;;;;4.00;3.25;;;;;18.97;56.57;101453.56;5055448;28;45796;-78
2022/06/10 05:06:10;;;;;;;;;3.75;2.25;;;;;18.97;56.34;101453.56;5055336;28;46742;-77
2022/06/10 05:08:36;;;;;;;;;3.50;3.00;;;;;18.97;56.75;101453.56;5055314;28;45619;-76
2022/06/10 05:11:01;;;;;;;;;4.00;3.00;;;;;18.97;56.57;101458.88;5055716;28;45838;-77
2022/06/10 05:13:27;;;;;;;;;2.75;2.75;;;;;18.91;56.61;101443.50;5055397;28;46788;-77
2022/06/10 05:15:53;;;;;;;;;3.25;3.00;;;;;18.98;56.39;101454.41;5055160;28;46425;-77
2022/06/10 05:18:21;;;;;;;;;5.75;4.00;;;;;18.94;56.46;101447.72;5054881;28;45577;-78
2022/06/10 05:20:47;;;;;;;;;3.00;3.00;;;;;19.01;56.71;101454.09;5055765;28;45499;-78
2022/06/10 05:23:15;;;;;;;;;4.25;3.25;;;;;19.02;56.96;101459.28;5054987;28;45637;-78
2022/06/10 05:25:41;;;;;;;;;3.00;3.00;;;;;19.00;56.68;101452.44;5055038;28;46365;-77
2022/06/10 05:28:07;;;;;;;;;3.00;3.00;;;;;19.00;56.64;101455.09;5036848;28;46085;-78
2022/06/10 05:30:34;;;;;;;;;3.25;3.25;;;;;18.95;57.10;101441.41;5055587;28;45820;-79
2022/06/10 05:33:01;;;;;;;;;3.00;3.00;;;;;19.05;57.44;101461.66;5055166;28;45660;-78
2022/06/10 05:35:28;;;;;;;;;4.00;4.00;;;;;19.06;57.12;101459.81;5054520;28;46302;-77
2022/06/10 05:37:57;;;;;;;;;2.00;2.00;;;;;18.98;56.90;101459.72;5036609;28;45924;-77
2022/06/10 05:40:47;;;;;;;;;2.25;2.00;;;;;18.97;56.88;101452.72;5055017;28;45696;-77
2022/06/10 05:43:19;;;;;;;;;3.25;3.00;;;;;18.88;57.19;101432.34;5054688;28;45634;-77
2022/06/10 05:45:59;;;;;;;;;;;;;;;;;;;;;
2022/06/10 05:48:49;;;;;;;;;4.00;2.00;;;;;18.92;57.26;101439.03;5053368;28;71513;-78
2022/06/10 05:51:24;;;;;;;;;1.75;1.75;;;;;18.88;57.59;101437.66;5036454;28;45751;-78
2022/06/10 05:53:49;;;;;;;;;3.25;2.00;;;;;19.11;57.21;101479.66;5054824;28;45895;-78
2022/06/10 05:56:15;;;;;;;;;3.25;3.00;;;;;19.06;57.46;101476.59;5054499;28;45665;-78
2022/06/10 05:59:18;;;;;;;;;2.75;2.00;;;;;19.13;57.75;101490.16;5054663;28;45834;-78
2022/06/10 06:01:46;;;;;;;;;2.50;2.00;;;;;19.12;57.53;101494.63;5034947;28;45767;-79
2022/06/10 06:04:12;;;;;;;;;3.00;2.00;;;;;19.04;57.57;101481.25;5054200;28;46390;-77
2022/06/10 06:06:39;;;;;;;;;3.00;1.50;;;;;19.09;57.40;101480.81;5054499;28;46284;-78
2022/06/10 06:09:04;;;;;;;;;3.00;3.00;;;;;19.22;57.66;101495.44;5054439;28;45715;-79
2022/06/10 06:11:29;;;;;;;;;2.75;2.00;;;;;19.18;57.22;101491.41;5054848;28;45393;-79
2022/06/10 06:13:57;;;;;;;;;4.00;3.00;;;;;19.23;57.21;101497.13;5054359;28;45739;-77
2022/06/10 06:16:28;;;;;;;;;4.50;4.25;;;;;19.23;57.51;101502.44;5054519;28;46303;-79
2022/06/10 06:18:54;;;;;;;;;3.50;2.00;;;;;19.25;57.79;101497.84;5054249;28;45646;-77
2022/06/10 06:21:19;;;;;;;;;4.00;3.00;;;;;19.32;57.50;101505.25;5054652;28;45901;-77
2022/06/10 06:23:44;;;;;;;;;4.00;3.25;;;;;19.29;57.85;101501.88;5054279;28;45531;-76
2022/06/10 06:26:15;;;;;;;;;3.00;2.75;;;;;19.34;57.81;101511.22;5054171;28;46017;-78
2022/06/10 06:28:42;;;;;;;;;4.00;4.00;;;;;19.35;57.26;101508.44;5054845;28;45759;-78
2022/06/10 06:31:08;;;;;;;;;3.00;2.00;;;;;19.30;57.53;101500.06;5054425;28;45599;-79
2022/06/10 06:33:34;;;;;;;;;3.75;2.75;;;;;19.36;57.69;101503.97;5054291;28;46566;-78
2022/06/10 06:35:59;;;;;;;;;2.25;2.00;;;;;19.41;57.73;101515.84;5054068;28;45980;-78
2022/06/10 06:38:26;;;;;;;;;2.50;1.75;;;;;19.38;57.57;101500.16;5035646;28;45873;-77
2022/06/10 06:40:52;;;;;;;;;3.25;2.00;;;;;19.44;57.29;101504.91;5053936;28;45555;-79
2022/06/10 06:43:17;;;;;;;;;3.75;2.00;;;;;19.43;57.46;101505.91;5054220;28;46876;-79
2022/06/10 06:45:43;;;;;;;;;3.25;2.75;;;;;19.46;57.25;101496.81;5053936;28;45747;-79
2022/06/10 06:51:57;;;;;;;;;3.50;3.50;;;;;19.57;57.36;101509.94;5053480;28;45734;-79
2022/06/10 06:54:24;;;;;;;;;3.50;2.00;;;;;19.57;57.07;101505.47;5053103;28;45617;-78
2022/06/10 06:56:49;;;;;;;;;1.25;1.25;;;;;19.60;57.03;101507.81;5053756;28;45939;-78
2022/06/10 06:59:15;;;;;;;;;3.00;2.00;;;;;19.58;57.05;101499.19;5053971;28;45701;-78
2022/06/10 07:01:40;;;;;;;;;4.00;2.75;;;;;19.63;57.15;101507.56;5054075;28;45692;-78
2022/06/10 07:04:06;;;;;;;;;2.25;2.00;;;;;19.66;57.31;101506.41;5053543;28;46453;-78
2022/06/10 07:06:36;;;;;;;;;3.00;1.50;;;;;19.70;57.25;101507.81;5054863;28;46386;-79
2022/06/10 07:09:03;;;;;;;;;2.75;2.75;;;;;19.72;56.62;101508.47;5054414;28;45679;-78
2022/06/10 07:11:31;;;;;;;;;1.00;1.00;;;;;19.75;56.75;101502.06;5054556;28;45884;-77
2022/06/10 07:14:02;;;;;;;;;2.00;2.00;;;;;19.66;56.54;101493.94;5054008;28;45824;-79
2022/06/10 07:16:37;;;;;;;;;2.00;2.00;;;;;19.75;56.37;101510.03;5034821;28;47531;-79
2022/06/10 07:19:28;;;;;;;;;1.00;1.00;;;;;19.69;56.59;101490.19;5053445;28;45446;-79
2022/06/10 07:26:32;;;;;;;;;2.25;2.00;;;;;19.89;56.31;101501.56;4894559;29;46638;-78
2022/06/10 07:32:42;;;;;;;;;2.00;2.00;;;;;19.95;55.20;101509.78;4820037;29;45841;-79
2022/06/10 07:35:08;;;;;;;;;2.00;2.00;;;;;19.90;55.76;101508.56;4819916;29;45635;-78
2022/06/10 07:37:34;;;;;;;;;2.75;2.00;;;;;19.88;55.58;101508.69;4828505;29;46726;-79
2022/06/10 07:41:56;;;;;;;;;2.00;2.00;;;;;19.86;55.81;101502.72;4838548;29;46057;-78
2022/06/10 07:47:01;;;;;;;;;2.00;2.00;;;;;20.10;55.39;101526.94;4747105;29;46244;-79
2022/06/10 07:49:30;;;;;;;;;2.00;2.00;;;;;20.13;55.07;101529.28;4747081;29;46729;-78
2022/06/10 07:51:57;;;;;;;;;2.25;2.00;;;;;20.19;54.96;101527.84;4747085;29;46162;-78
2022/06/10 07:54:23;;;;;;;;;2.00;1.75;;;;;20.30;55.19;101521.50;4746607;29;45669;-79
2022/06/10 07:56:49;;;;;;;;;1.00;1.00;;;;;20.32;54.96;101509.75;4747369;29;45651;-78
2022/06/10 07:59:14;;;;;;;;;4.00;2.50;;;;;20.42;54.50;101523.81;4747191;29;46315;-78
2022/06/10 08:01:40;;;;;;;;;1.50;1.25;;;;;20.42;54.69;101509.69;4776305;29;45943;-77
2022/06/10 08:04:06;;;;;;;;;3.50;2.00;;;;;20.52;54.73;101518.44;4909143;28;45873;-79
2022/06/10 08:06:33;;;;;;;;;1.25;1.25;;;;;20.53;55.17;101506.81;4916591;28;45600;-77
2022/06/10 08:08:58;;;;;;;;;1.25;1.00;;;;;20.61;54.13;101514.03;4900472;28;47681;-78
2022/06/10 08:11:24;;;;;;;;;2.00;1.00;;;;;20.59;53.96;101498.22;4916421;28;45767;-79
2022/06/10 08:13:49;;;;;;;;;2.25;2.00;;;;;20.71;53.90;101515.63;4916412;28;45665;-78
2022/06/10 08:16:15;;;;;;;;;3.00;1.00;;;;;20.74;54.10;101515.31;4916905;28;45725;-78
2022/06/10 08:22:34;;;;;;;;;2.00;2.00;;;;;20.82;53.33;101512.75;4962731;28;46361;-78
2022/06/10 08:25:00;;;;;;;;;2.00;2.00;;;;;20.89;53.12;101523.63;5056138;28;45609;-78
2022/06/10 08:27:28;;;;;;;;;2.00;1.50;;;;;20.87;53.58;101507.78;5056081;28;45991;-78
2022/06/10 08:29:55;;;;;;;;;1.75;0.75;;;;;20.91;53.36;101509.16;5056049;28;46515;-78
2022/06/10 08:32:21;;;;;;;;;0.75;0.75;;;;;20.95;53.05;101499.00;5056143;28;46294;-78
2022/06/10 08:34:47;;;;;;;;;0.50;0.50;;;;;21.01;52.68;101500.22;5055919;28;45760;-78
2022/06/10 08:37:12;;;;;;;;;2.75;0.75;;;;;21.10;52.77;101496.66;5056185;28;45792;-79
2022/06/10 08:39:38;;;;;;;;;1.00;1.00;;;;;21.13;51.70;101496.31;5056213;28;45846;-78
2022/06/10 08:42:35;;;;;;;;;2.25;2.00;;;;;21.18;51.71;101500.22;5037569;28;47117;-77
2022/06/10 08:45:44;;;;;;;;;1.75;1.75;;;;;21.19;51.65;101498.41;5055846;28;45798;-76
2022/06/10 08:48:36;;;;;;;;;1.50;0.50;;;;;21.23;51.48;101497.94;5055847;28;45579;-78
2022/06/10 08:51:07;;;;;;;;;1.75;1.00;;;;;21.27;51.70;101498.44;5055780;28;46005;-77
2022/06/10 08:53:56;;;;;;;;;1.50;1.00;;;;;21.33;52.04;101500.47;5056048;28;46040;-79
2022/06/10 08:56:40;;;;;;;;;1.50;1.00;;;;;21.38;51.48;101500.84;5055838;28;45557;-78
2022/06/10 08:59:08;;;;;;;;;0.00;0.00;;;;;21.50;49.67;101504.09;5056044;28;45575;-78
2022/06/10 09:05:13;;;;;;;;;0.00;0.00;;;;;21.62;49.23;101493.00;5055149;28;46207;-78
2022/06/10 09:07:49;;;;;;;;;0.00;0.00;;;;;21.68;49.38;101513.72;5055656;28;45725;-79
2022/06/10 09:10:32;;;;;;;;;0.75;0.75;;;;;21.64;49.31;101499.03;5055811;28;45780;-77
2022/06/10 09:13:06;;;;;;;;;2.25;1.25;;;;;21.71;49.66;101500.03;5037284;28;46021;-78
2022/06/10 09:15:39;;;;;;;;;1.50;1.00;;;;;21.69;49.66;101491.38;5054529;28;45780;-78
2022/06/10 09:21:55;;;;;;;;;1.00;1.00;;;;;21.83;49.50;101502.44;5055067;27;45591;-78
2022/06/10 09:24:26;;;;;;;;;1.00;1.00;;;;;21.89;49.19;101501.78;5054913;28;46595;-78
2022/06/10 09:27:04;;;;;;;;;1.00;1.00;;;;;21.91;48.21;101489.13;5055053;28;45919;-78
2022/06/10 09:29:29;;;;;;;;;1.50;0.75;;;;;21.90;48.27;101484.78;5055406;28;46067;-78
2022/06/10 09:38:14;;;;;;;;;1.00;1.00;;;;;22.05;48.55;101504.56;5054700;28;45748;-79
2022/06/10 09:41:00;;;;;;;;;1.00;0.25;;;;;22.08;47.84;101498.88;5055301;28;45701;-78
2022/06/10 09:43:50;;;;;;;;;1.00;1.00;;;;;22.13;48.06;101501.94;5055474;28;45684;-79
2022/06/10 09:46:35;;;;;;;;;0.25;0.25;;;;;22.14;48.38;101492.91;5036694;28;47527;-79
2022/06/10 09:49:26;;;;;;;;;1.50;1.00;;;;;;;;5054987;28;45760;-79
2022/06/10 09:52:10;;;;;;;;;0.00;0.00;;;;;22.21;47.31;101501.94;5055051;28;45890;-80
2022/06/10 09:54:47;;;;;;;;;2.00;1.00;;;;;22.14;47.14;101508.91;5054747;28;45934;-78
2022/06/10 09:57:34;;;;;;;;;0.75;0.75;;;;;22.23;47.11;101507.97;5054657;28;46730;-78
2022/06/10 10:00:20;;;;;;;;;0.75;0.75;;;;;22.25;47.56;101511.28;5055196;28;45837;-79
2022/06/10 10:06:13;;;;;;;;;1.75;1.75;;;;;22.30;47.38;101516.13;5054838;28;45730;-78
2022/06/10 10:08:43;;;;;;;;;0.00;0.00;;;;;22.32;47.94;101519.50;5054656;28;45800;-79
2022/06/10 10:11:21;;;;;;;;;1.00;1.00;;;;;22.29;47.77;101512.66;5054643;28;46361;-78
2022/06/10 10:13:56;;;;;;;;;1.00;1.00;;;;;22.33;48.21;101521.16;5035917;28;45610;-79
2022/06/10 10:16:44;;;;;;;;;0.25;0.25;;;;;22.36;48.64;101505.66;5036101;28;45906;-79
2022/06/10 10:22:51;;;;;;;;;1.00;1.00;;;;;22.47;48.50;101518.69;5053890;28;45703;-78
2022/06/10 10:25:23;;;;;;;;;2.00;1.00;;;;;22.47;48.95;101509.84;5054071;28;45626;-78
2022/06/10 10:27:50;;;;;;;;;2.00;1.25;;;;;22.48;48.92;101514.19;5054205;28;45757;-78
2022/06/10 10:30:36;;;;;;;;;1.00;1.00;;;;;22.55;49.43;101512.53;5035988;28;46747;-79
2022/06/10 10:36:32;;;;;;;;;1.75;0.75;;;;;22.72;49.20;101519.63;5053800;28;45634;-78
2022/06/10 10:39:11;;;;;;;;;2.00;2.00;;;;;22.80;48.79;101508.91;5054743;28;45638;-78
2022/06/10 10:41:43;;;;;;;;;1.00;1.00;;;;;22.85;48.93;101500.41;5054081;28;48891;-79
2022/06/10 10:44:32;;;;;;;;;1.00;1.00;;;;;22.95;49.08;101501.91;5053852;28;45866;-78
2022/06/10 10:47:09;;;;;;;;;3.75;3.00;;;;;23.00;49.01;101509.41;5054094;28;45692;-78
2022/06/10 10:52:58;;;;;;;;;1.50;1.50;;;;;23.00;48.75;101502.22;5053629;28;45757;-80
2022/06/10 10:55:32;;;;;;;;;1.25;1.25;;;;;23.09;48.35;101504.91;5053747;28;45946;-76
2022/06/10 10:58:27;;;;;;;;;1.00;0.25;;;;;23.09;48.15;101504.91;5053637;28;45705;-78
2022/06/10 11:03:57;;;;;;;;;4.75;3.00;;;;;22.96;48.82;101494.72;5053294;28;45679;-80
2022/06/10 11:06:30;;;;;;;;;1.75;1.75;;;;;22.90;49.22;101495.38;5053301;28;45912;-79
2022/06/10 11:09:23;;;;;;;;;2.25;2.00;;;;;22.96;48.96;101492.88;5053656;28;45890;-78
2022/06/10 11:11:51;;;;;;;;;3.25;3.25;;;;;22.94;48.62;101497.53;5053663;28;45801;-80
2022/06/10 11:14:47;;;;;;;;;1.50;1.00;;;;;22.98;49.53;101504.25;5053640;28;46535;-79
2022/06/10 11:17:13;;;;;;;;;2.00;2.00;;;;;23.06;49.07;101506.06;4932599;28;46197;-79
2022/06/10 11:19:42;;;;;;;;;2.00;1.75;;;;;23.12;48.85;101508.06;4932912;28;45742;-78
2022/06/10 11:22:09;;;;;;;;;1.00;1.00;;;;;23.10;48.80;101504.75;4932588;28;45694;-79
2022/06/10 11:24:44;;;;;;;;;1.00;1.00;;;;;23.15;48.19;101517.59;4932330;28;45639;-80
2022/06/10 11:27:18;;;;;;;;;1.00;1.00;;;;;23.20;48.42;101510.75;4932390;28;47185;-78
2022/06/10 11:29:57;;;;;;;;;2.00;2.00;;;;;23.20;48.21;101516.09;4932810;28;45643;-79
2022/06/10 11:32:26;;;;;;;;;3.00;1.25;;;;;23.21;48.59;101506.25;4932688;28;45922;-79
2022/06/10 11:35:19;;;;;;;;;1.50;1.50;;;;;23.27;48.44;101517.06;4932369;28;46756;-80
2022/06/10 11:37:48;;;;;;;;;1.75;1.00;;;;;23.24;48.24;101501.38;4932317;28;46168;-76
2022/06/10 11:40:16;;;;;;;;;2.00;1.00;;;;;23.27;48.18;101503.69;4931795;28;45755;-78
2022/06/10 11:42:50;;;;;;;;;2.00;1.00;;;;;23.18;47.72;101487.84;4932780;28;45831;-77
2022/06/10 11:45:47;;;;;;;;;4.50;2.00;;;;;23.19;47.77;101498.38;4932308;28;46640;-78
2022/06/10 11:51:43;;;;;;;;;1.00;1.00;;;;;23.34;48.19;101495.84;4894009;28;45723;-77
2022/06/10 11:54:26;;;;;;;;;1.75;1.00;;;;;23.39;48.25;101499.66;4955148;28;45981;-78
2022/06/10 12:00:00;;;;;;;;;3.00;2.00;;;;;23.49;47.22;101494.16;4991191;28;45696;-78
2022/06/10 12:02:46;;;;;;;;;1.75;1.00;;;;;23.50;47.03;101489.66;4990820;28;45711;-78
2022/06/10 12:08:33;;;;;;;;;1.00;1.00;;;;;23.44;48.00;101478.59;4990340;28;46063;-79
2022/06/10 12:11:19;;;;;;;;;1.00;1.00;;;;;23.42;47.71;101477.94;4990573;28;45602;-77
2022/06/10 12:13:57;;;;;;;;;2.00;2.00;;;;;23.41;47.69;101481.63;4912958;28;45706;-77
2022/06/10 12:16:25;;;;;;;;;1.00;1.00;;;;;23.44;48.16;101467.06;4913102;28;45956;-80
2022/06/10 12:18:52;;;;;;;;;2.00;2.00;;;;;23.55;47.56;101479.25;4912960;28;46620;-79
2022/06/10 12:21:22;;;;;;;;;2.25;1.00;;;;;23.65;47.71;101479.88;4912865;28;46236;-79
2022/06/10 12:23:51;;;;;;;;;2.00;1.25;;;;;23.61;47.42;101455.31;4919024;28;45899;-79
2022/06/10 12:26:28;;;;;;;;;1.50;1.25;;;;;23.77;47.65;101473.16;4934854;28;45764;-80
2022/06/10 12:29:08;;;;;;;;;1.00;1.00;;;;;23.82;46.88;101468.97;4951263;28;46463;-79
2022/06/10 12:31:42;;;;;;;;;0.50;0.50;;;;;23.85;47.17;101478.50;4951186;28;45829;-79
2022/06/10 12:34:13;;;;;;;;;1.75;1.25;;;;;23.88;47.07;101477.28;4951250;28;45788;-80
2022/06/10 12:36:49;;;;;;;;;1.00;1.00;;;;;23.87;47.04;101473.78;4951270;28;45609;-79
2022/06/10 12:39:24;;;;;;;;;1.00;1.00;;;;;23.94;47.11;101477.44;4951471;28;45666;-79
2022/06/10 12:41:56;;;;;;;;;2.00;1.00;;;;;24.00;46.93;101474.06;4951130;28;45704;-79
2022/06/10 12:44:28;;;;;;;;;2.00;2.00;;;;;24.04;47.25;101486.09;4951091;28;45796;-79
2022/06/10 12:46:59;;;;;;;;;2.25;1.00;;;;;24.08;46.59;101475.84;4951285;28;45814;-79
2022/06/10 12:49:41;;;;;;;;;1.50;1.00;;;;;24.08;46.75;101478.53;4951121;28;45679;-80
2022/06/10 12:52:21;;;;;;;;;1.00;1.00;;;;;24.06;46.58;101485.91;5036266;28;47114;-79
2022/06/10 12:54:58;;;;;;;;;1.00;1.00;;;;;24.02;47.01;101482.75;5037192;28;45713;-79
2022/06/10 12:57:27;;;;;;;;;1.00;1.00;;;;;24.05;47.07;101484.25;5055831;28;45914;-78
2022/06/10 13:00:22;;;;;;;;;2.00;1.25;;;;;24.07;47.18;101472.38;5037244;28;46666;-79
2022/06/10 13:02:50;;;;;;;;;1.25;1.25;;;;;24.09;46.51;101481.03;5046231;28;46624;-79
2022/06/10 13:05:44;;;;;;;;;0.00;0.00;;;;;24.04;46.46;101469.19;5055334;28;45640;-78
2022/06/10 13:08:34;;;;;;;;;1.50;1.50;;;;;24.06;46.90;101476.03;5055652;28;46229;-79
2022/06/10 13:11:02;;;;;;;;;1.00;1.00;;;;;24.05;46.38;101479.72;5037237;28;45998;-79
2022/06/10 13:13:28;;;;;;;;;1.00;1.00;;;;;23.97;46.45;101462.88;5036953;28;47341;-79
2022/06/10 13:15:56;;;;;;;;;2.00;1.00;;;;;24.02;46.39;101468.53;5055570;28;45885;-80
2022/06/10 13:18:31;;;;;;;;;1.00;1.00;;;;;24.01;46.58;101475.75;5055449;28;45801;-79
2022/06/10 13:21:09;;;;;;;;;1.00;1.00;;;;;24.02;46.78;101473.91;5055198;28;45873;-79
2022/06/10 13:23:48;;;;;;;;;2.00;2.00;;;;;23.98;46.77;101472.56;5055195;28;46357;-79
2022/06/10 13:26:18;;;;;;;;;0.50;0.50;;;;;24.06;46.93;101477.88;5055191;28;45570;-78
2022/06/10 13:28:45;;;;;;;;;2.00;1.00;;;;;24.10;46.61;101472.00;5057273;28;45597;-79
2022/06/10 13:31:16;;;;;;;;;1.25;1.00;;;;;24.19;46.64;101478.16;5039670;28;48958;-80
2022/06/10 13:37:18;;;;;;;;;1.25;1.00;;;;;24.31;46.77;101475.91;5055541;28;45743;-78
2022/06/10 13:39:47;;;;;;;;;1.50;1.00;;;;;24.37;46.28;101467.19;5055231;28;45616;-78
2022/06/10 13:42:34;;;;;;;;;2.00;2.00;;;;;24.43;46.22;101471.84;5055226;28;46941;-79